Latest Coastal Weather Observations for Wadeye (Port Keats)

IDD60701

Issued at 2:01 am CST Thursday 3 September 2026 (issued every 10 minutes, with the page automatically refreshed every 10 minutes)

About coastal observations | Map of coastal stations | Coastal observations for NT | Marine services | Other Formats
Station Details ID: 014948 Name: PORT KEATS AIRPORT Lat: -14.25 Lon: 129.53 Height: 28.0 m
Data from the previous 72 hours. | See also: Recent months at Wadeye (Port Keats)
Date/Time
CST
Wind Sea
Height
m
Swell Vis
km
Cloud Weather Temp
°C
Press
MSL
hPa
Rain since
9am
mm
Dir  Spd
kts
Gust
kts
Height
m
Period
s
Dir
03/02:00am CALM 0 0 - - - - - - - 21.1 1015.8 0.0
03/01:30am CALM 0 0 - - - - - - - 21.0 1015.9 0.0
03/01:00am CALM 0 0 - - - - - - - 21.1 1016.0 0.0
03/12:30am CALM 0 0 - - - - - - - 21.5 1016.1 0.0
03/12:00am CALM 0 0 - - - - - - - 22.0 1016.3 0.0
 
Date/Time
CST
Wind Sea
Height
m
Swell Vis
km
Cloud Weather Temp
°C
Press
MSL
hPa
Rain since
9am
mm
Dir  Spd
kts
Gust
kts
Height
m
Period
s
Dir
02/11:30pm CALM 0 0 - - - - - - - 22.0 1016.2 0.0
02/11:00pm CALM 0 0 - - - - - - - 22.1 1016.2 0.0
02/10:30pm CALM 0 0 - - - - - - - 22.4 1016.1 0.0
02/10:00pm CALM 0 0 - - - - - - - 22.6 1016.1 0.0
02/09:30pm CALM 0 0 - - - - - - - 23.5 1015.9 0.0
02/09:00pm CALM 0 0 - - - - - - - 23.4 1015.7 0.0
02/08:30pm CALM 0 0 - - - - - - - 24.0 1015.6 0.0
02/08:00pm CALM 0 0 - - - - - - - 24.3 1015.3 0.0
02/07:30pm W 2 4 - - - - - - - 24.9 1014.9 0.0
02/07:00pm WNW 3 5 - - - - - - - 25.5 1014.5 0.0
02/06:30pm WNW 5 8 - - - - - - - 26.3 1014.2 0.0
02/06:00pm W 5 8 - - - - - - - 27.4 1014.1 0.0
02/05:30pm W 6 11 - - - - - - - 27.6 1013.9 0.0
02/05:00pm WNW 7 10 - - - - - - - 27.7 1014.0 0.0
02/04:30pm WNW 7 10 - - - - - - - 27.9 1014.0 0.0
02/04:00pm W 6 9 - - - - - - - 26.6 1014.0 0.0
02/03:30pm W 5 8 - - - - - - - 26.3 1014.3 0.0
02/03:00pm W 7 10 - - - - - - - 26.6 1014.4 0.0
02/02:30pm WSW 7 9 - - - - - - - 27.9 1014.9 0.0
02/02:00pm NNW 9 16 - - - - - - - 29.6 1014.7 0.0
02/01:30pm NNW 11 17 - - - - - - - 30.5 1015.0 0.0
02/01:00pm E 10 15 - - - - - - - 32.6 1015.7 0.0
02/12:30pm E 8 14 - - - - - - - 32.0 1016.3 0.0
02/12:00pm ENE 9 17 - - - - - - - 32.0 1016.9 0.0
02/11:30am ENE 9 13 - - - - - - - 31.3 1017.4 0.0
02/11:00am NE 9 14 - - - - - - - 30.9 1017.7 0.0
02/10:30am NE 8 11 - - - - - - - 30.2 1018.0 0.0
02/10:00am ENE 9 13 - - - - - - - 29.0 1018.1 0.0
02/09:30am E 9 13 - - - - - - - 27.8 1017.9 0.0
02/09:00am ENE 5 8 - - - - - - - 26.6 1017.7 0.0
02/08:30am ESE 4 7 - - - - - - - 26.0 1017.6 0.0
02/08:00am ESE 3 6 - - - - - - - 24.0 1017.3 0.0
02/07:30am ESE 4 6 - - - - - - - 23.2 1017.0 0.0
02/07:00am ESE 6 8 - - - - - - - 23.0 1016.7 0.0
02/06:30am SE 6 8 - - - - - - - 23.0 1016.1 0.0
02/06:00am SE 4 6 - - - - - - - 22.6 1015.9 0.0
02/05:30am ESE 5 7 - - - - - - - 22.2 1015.6 0.0
02/05:00am NE 3 5 - - - - - - - 21.7 1015.3 0.0
02/04:30am S 1 4 - - - - - - - 21.4 1015.0 0.0
02/04:00am S 2 5 - - - - - - - 21.0 1015.0 0.0
02/03:30am SSW 1 4 - - - - - - - 20.9 1015.2 0.0
02/03:00am CALM 0 0 - - - - - - - 20.8 1015.3 0.0
02/02:30am CALM 0 0 - - - - - - - 20.8 1015.6 0.0
02/02:00am CALM 0 0 - - - - - - - 21.0 1015.9 0.0
02/01:30am CALM 0 0 - - - - - - - 22.0 1016.0 0.0
02/01:00am CALM 0 0 - - - - - - - 22.5 1016.2 0.0
02/12:30am CALM 0 4 - - - - - - - 22.8 1016.4 0.0
02/12:00am S 1 4 - - - - - - - 22.7 1016.4 0.0
 
Date/Time
CST
Wind Sea
Height
m
Swell Vis
km
Cloud Weather Temp
°C
Press
MSL
hPa
Rain since
9am
mm
Dir  Spd
kts
Gust
kts
Height
m
Period
s
Dir
01/11:30pm S 2 4 - - - - - - - 22.1 1016.3 0.0
01/11:00pm CALM 0 0 - - - - - - - 22.2 1016.3 0.0
01/10:30pm CALM 0 0 - - - - - - - 22.1 1016.3 0.0
01/10:00pm CALM 0 0 - - - - - - - 23.3 1016.2 0.0
01/09:30pm CALM 0 0 - - - - - - - 23.3 1016.0 0.0
01/09:00pm CALM 0 0 - - - - - - - 23.5 1015.8 0.0
01/08:30pm CALM 0 0 - - - - - - - 24.6 1015.6 0.0
01/08:00pm WSW 1 3 - - - - - - - 24.8 1015.2 0.0
01/07:30pm W 2 5 - - - - - - - 25.5 1015.0 0.0
01/07:00pm W 4 8 - - - - - - - 26.0 1014.9 0.0
01/06:30pm W 4 9 - - - - - - - 26.9 1014.8 0.0
01/06:00pm WNW 6 9 - - - - - - - 27.3 1014.4 0.0
01/05:30pm WNW 6 11 - - - - - - - 26.6 1014.2 0.0
01/05:00pm W 5 9 - - - - - - - 26.7 1014.1 0.0
01/04:30pm W 5 7 - - - - - - - 26.4 1014.2 0.0
01/04:00pm WNW 7 10 - - - - - - - 26.5 1014.3 0.0
01/03:30pm NW 10 14 - - - - - - - 28.0 1014.2 0.0
01/03:00pm NNW 11 15 - - - - - - - 30.3 1014.7 0.0
01/02:30pm N 11 16 - - - - - - - 30.8 1014.9 0.0
01/02:00pm N 10 15 - - - - - - - 30.9 1015.6 0.0
01/01:30pm N 11 16 - - - - - - - 30.9 1016.0 0.0
01/01:00pm N 10 15 - - - - - - - 31.1 1016.5 0.0
01/12:30pm N 10 15 - - - - - - - 30.3 1017.1 0.0
01/12:00pm N 10 15 - - - - - - - 29.9 1017.8 0.0
01/11:30am N 11 16 - - - - - - - 28.9 1018.4 0.0
01/11:00am NNE 12 16 - - - - - - - 28.4 1018.9 0.0
01/10:30am NNE 9 15 - - - - - - - 27.8 1019.2 0.0
01/10:00am NE 9 13 - - - - - - - 27.7 1019.2 0.0
01/09:30am ENE 9 13 - - - - - - - 25.9 1019.0 0.0
01/09:00am ENE 7 11 - - - - - - - 25.0 1018.9 0.2
01/08:30am ENE 6 9 - - - - - - - 24.4 1018.7 0.2
01/08:00am E 4 6 - - - - - - - 24.1 1018.4 0.2
01/07:30am ESE 6 8 - - - - - - - 23.2 1018.0 0.2
01/07:00am SE 6 7 - - - - - - - 22.6 1017.7 0.2
01/06:30am SE 7 9 - - - - - - - 23.2 1017.2 0.2
01/06:00am SE 6 8 - - - - - - - 22.9 1016.8 0.2
01/05:30am SSE 4 6 - - - - - - - 22.0 1016.4 0.2
01/05:00am SSE 3 6 - - - - - - - 22.2 1016.2 0.2
01/04:30am S 4 8 - - - - - - - 21.4 1015.8 0.2
01/04:00am S 3 5 - - - - - - - 20.8 1016.0 0.0
01/03:30am S 3 6 - - - - - - - 20.7 1015.8 0.0
01/03:00am CALM 0 0 - - - - - - - 19.6 1015.8 0.0
01/02:30am CALM 0 0 - - - - - - - 19.8 1016.0 0.0
01/02:00am CALM 0 0 - - - - - - - 20.0 1016.2 0.0
01/01:30am CALM 0 0 - - - - - - - 20.3 1016.5 0.0
01/01:00am CALM 0 0 - - - - - - - 20.1 1016.6 0.0
01/12:30am CALM 0 0 - - - - - - - 21.4 1016.9 0.0
01/12:00am CALM 0 0 - - - - - - - 21.1 1016.9 0.0
 
Date/Time
CST
Wind Sea
Height
m
Swell Vis
km
Cloud Weather Temp
°C
Press
MSL
hPa
Rain since
9am
mm
Dir  Spd
kts
Gust
kts
Height
m
Period
s
Dir
31/11:30pm CALM 0 0 - - - - - - - 21.9 1016.9 0.0
31/11:00pm S 1 4 - - - - - - - 21.9 1016.9 0.0
31/10:30pm CALM 0 0 - - - - - - - 21.6 1016.9 0.0
31/10:00pm SSW 1 4 - - - - - - - 22.2 1016.8 0.0
31/09:30pm CALM 0 0 - - - - - - - 23.0 1016.8 0.0
31/09:00pm CALM 0 0 - - - - - - - 23.2 1016.5 0.0
31/08:30pm CALM 0 0 - - - - - - - 24.1 1016.2 0.0
31/08:00pm CALM 0 0 - - - - - - - 24.8 1015.7 0.0
31/07:30pm SW 1 3 - - - - - - - 25.2 1015.3 0.0
31/07:00pm W 5 8 - - - - - - - 25.9 1015.0 0.0
31/06:30pm W 5 8 - - - - - - - 27.1 1014.8 0.0
31/06:00pm W 5 9 - - - - - - - 28.0 1014.5 0.0
31/05:30pm W 7 10 - - - - - - - 28.9 1014.4 0.0
31/05:00pm W 7 10 - - - - - - - 29.2 1014.3 0.0
31/04:30pm W 6 9 - - - - - - - 30.0 1014.4 0.0
31/04:00pm WNW 7 11 - - - - - - - 30.0 1014.5 0.0
31/03:30pm WNW 7 10 - - - - - - - 29.6 1014.8 0.0
31/03:00pm WNW 8 13 - - - - - - - 31.0 1015.2 0.0
31/02:30pm NNW 8 12 - - - - - - - 30.7 1015.5 0.0
31/02:00pm N 7 13 - - - - - - - 31.0 1016.0 0.0
31/01:30pm N 7 11 - - - - - - - 30.9 1016.5 0.0
31/01:00pm NNW 10 14 - - - - - - - 31.5 1017.0 0.0
31/12:30pm N 9 12 - - - - - - - 30.7 1017.4 0.0
31/12:00pm N 7 14 - - - - - - - 31.6 1017.9 0.0
31/11:30am ENE 6 12 - - - - - - - 30.4 1018.5 0.0
31/11:00am E 6 9 - - - - - - - 30.1 1018.9 0.0
31/10:30am E 7 11 - - - - - - - 28.7 1019.1 0.0
31/10:00am E 7 10 - - - - - - - 28.2 1019.1 0.0
31/09:30am NE 5 8 - - - - - - - 26.9 1018.9 0.0
31/09:00am ENE 6 9 - - - - - - - 25.8 1018.8 0.0
31/08:30am NNE 2 4 - - - - - - - 23.9 1018.5 0.0
31/08:00am CALM 0 0 - - - - - - - 22.1 1018.1 0.0
31/07:30am CALM 0 0 - - - - - - - 21.0 1017.6 0.0
31/07:00am CALM 0 0 - - - - - - - 20.8 1017.4 0.0
31/06:30am CALM 0 0 - - - - - - - 20.9 1017.1 0.0
31/06:00am CALM 0 0 - - - - - - - 22.2 1016.8 0.0
31/05:30am ESE 5 7 - - - - - - - 22.9 1016.8 0.0
31/05:00am S 4 8 - - - - - - - 22.5 1016.3 0.0
31/04:30am S 2 4 - - - - - - - 20.2 1015.8 0.0
31/04:00am CALM 0 3 - - - - - - - 20.4 1015.6 0.0
31/03:30am S 3 4 - - - - - - - 20.9 1015.7 0.0
31/03:00am CALM 0 0 - - - - - - - 20.8 1015.8 0.0
31/02:30am CALM 0 0 - - - - - - - 21.4 1016.1 0.0

Other formats

Comma delimited format used in spreadsheet applications
http://www.bom.gov.au/fwo/IDD60701/IDD60701.95111.axf

JavaScript Object Notation format (JSON) in row-major order
http://www.bom.gov.au/fwo/IDD60701/IDD60701.95111.json

Data quality

Most of these data are generated automatically and are frequently updated. Quality checks on data are not normally performed. It is possible for incorrect values to appear. Refer to information at About Latest Weather Observations and please check the disclaimer before using these data.